Time;durP1;ratioP1;P1;durP2;ratioP2;P2;SDS_P1;SDS_P2;PMS_P1;PMS_P2;Temp;Humidity;BMP_temperature;BMP_pressure;BME280_temperature;BME280_humidity;BME280_pressure;Samples;Min_cycle;Max_cycle;Signal;HPM_P1;HPM_P2
2022/05/21 00:00:56;;;;;;;;;;;;;;;23.11;47.15;99465.34;4451022;32;33071;-64
2022/05/21 00:03:24;;;;;;;;;;;;;;;23.00;47.47;99459.44;4448874;32;34323;-67
2022/05/21 00:05:52;;;;;;;;;;;;;;;22.97;47.48;99448.06;4449817;32;34764;-64
2022/05/21 00:08:20;;;;;;;;;;;;;;;22.90;47.71;99450.75;4442556;32;33713;-65
2022/05/21 00:10:49;;;;;;;;;;;;;;;22.92;47.62;99451.41;4442627;32;34188;-64
2022/05/21 00:13:16;;;;;;;;;;;;;;;22.67;48.27;99458.38;4448039;32;35419;-64
2022/05/21 00:15:45;;;;;;;;;;;;;;;22.63;48.39;99451.59;4450810;32;34438;-65
2022/05/21 00:18:13;;;;;;;;;;;;;;;22.70;48.21;99449.78;4442566;32;33527;-64
2022/05/21 00:20:47;;;;;;;;;;;;;;;22.70;48.17;99450.63;4449266;32;34211;-65
2022/05/21 00:23:15;;;;;;;;;;;;;;;22.74;48.07;99440.16;4438627;32;34326;-64
2022/05/21 00:25:44;;;;;;;;;;;;;;;22.78;48.05;99439.53;4444468;32;33972;-63
2022/05/21 00:28:12;;;;;;;;;;;;;;;22.84;47.86;99443.34;4446091;32;33404;-68
2022/05/21 00:30:41;;;;;;;;;;;;;;;22.90;47.74;99431.63;4442284;32;33902;-66
2022/05/21 00:33:08;;;;;;;;;;;;;;;22.88;47.72;99422.81;4452425;32;35397;-68
2022/05/21 00:35:36;;;;;;;;;;;;;;;22.82;47.90;99439.97;4451792;32;34380;-66
2022/05/21 00:38:04;;;;;;;;;;;;;;;22.87;47.81;99433.94;4452149;32;33801;-65
2022/05/21 00:40:32;;;;;;;;;;;;;;;22.81;48.05;99421.09;4449646;32;34037;-65
2022/05/21 00:43:00;;;;;;;;;;;;;;;22.88;47.88;99420.06;4451962;32;33914;-65
2022/05/21 00:45:28;;;;;;;;;;;;;;;22.90;47.73;99409.81;4454472;32;35480;-66
2022/05/21 00:47:56;;;;;;;;;;;;;;;22.85;47.84;99411.44;4440628;32;32040;-65
2022/05/21 00:50:25;;;;;;;;;;;;;;;22.90;47.74;99408.97;4445742;32;32775;-65
2022/05/21 00:52:53;;;;;;;;;;;;;;;22.76;48.19;99416.22;4443682;32;34397;-63
2022/05/21 00:55:27;;;;;;;;;;;;;;;22.89;47.80;99420.91;4443187;32;34495;-65
2022/05/21 01:00:55;;;;;;;;;;;;;;;22.77;48.22;99428.84;4438143;32;34687;-65
2022/05/21 01:03:25;;;;;;;;;;;;;;;22.77;48.23;99440.59;4448962;32;33189;-67
2022/05/21 01:05:53;;;;;;;;;;;;;;;22.75;48.24;99439.94;4445783;32;34658;-65
2022/05/21 01:08:22;;;;;;;;;;;;;;;22.83;48.10;99443.56;4441440;32;32326;-65
2022/05/21 01:10:52;;;;;;;;;;;;;;;22.75;48.33;99434.47;4443712;32;34265;-71
2022/05/21 01:13:21;;;;;;;;;;;;;;;22.74;48.42;99427.34;4446167;32;34243;-68
2022/05/21 01:15:53;;;;;;;;;;;;;;;22.83;48.12;99424.47;4449433;32;33115;-69
2022/05/21 01:18:21;;;;;;;;;;;;;;;22.80;48.22;99439.34;4446191;32;32139;-66
2022/05/21 01:20:54;;;;;;;;;;;;;;;22.75;48.29;99439.94;4446717;32;35423;-67
2022/05/21 01:23:23;;;;;;;;;;;;;;;22.67;48.41;99437.37;4448812;32;35278;-68
2022/05/21 01:25:51;;;;;;;;;;;;;;;22.62;48.55;99442.59;4446311;32;34409;-66
2022/05/21 01:28:23;;;;;;;;;;;;;;;22.63;48.52;99443.44;4449517;32;34634;-69
2022/05/21 01:30:54;;;;;;;;;;;;;;;22.57;48.66;99434.19;4449649;32;32953;-68
2022/05/21 01:33:25;;;;;;;;;;;;;;;22.43;49.05;99435.13;4451094;32;34458;-67
2022/05/21 01:35:54;;;;;;;;;;;;;;;22.43;49.05;99418.75;4448813;32;34137;-66
2022/05/21 01:38:24;;;;;;;;;;;;;;;22.32;49.50;99422.88;4449594;32;32446;-65
2022/05/21 01:40:56;;;;;;;;;;;;;;;22.44;49.25;99420.44;4446191;32;33929;-65
2022/05/21 01:46:16;;;;;;;;;;;;;;;22.50;49.07;99422.37;4448147;32;34278;-65
2022/05/21 01:48:47;;;;;;;;;;;;;;;22.52;49.07;99423.03;4449041;32;32446;-65
2022/05/21 01:51:17;;;;;;;;;;;;;;;22.47;49.28;99437.25;4449459;32;34056;-64
2022/05/21 01:53:46;;;;;;;;;;;;;;;22.30;49.73;99446.78;4450721;32;33315;-65
2022/05/21 01:56:16;;;;;;;;;;;;;;;22.33;49.74;99457.28;4447446;32;33177;-69
2022/05/21 01:58:47;;;;;;;;;;;;;;;22.10;50.37;99492.91;4449720;32;33551;-69
2022/05/21 02:01:16;;;;;;;;;;;;;;;21.84;51.40;99548.81;4449705;32;34198;-66
2022/05/21 02:03:46;;;;;;;;;;;;;;;21.60;52.54;99576.38;4449304;32;33099;-66
2022/05/21 02:06:14;;;;;;;;;;;;;;;21.83;51.97;99547.12;4451107;32;34450;-65
2022/05/21 02:08:45;;;;;;;;;;;;;;;22.02;51.78;99539.34;4449685;32;33927;-67
2022/05/21 02:11:14;;;;;;;;;;;;;;;22.17;51.47;99577.50;4449117;32;33753;-66
2022/05/21 02:13:44;;;;;;;;;;;;;;;22.43;51.20;99577.75;4445807;32;35565;-67
2022/05/21 02:16:13;;;;;;;;;;;;;;;22.23;52.82;99587.63;4450787;32;33371;-69
2022/05/21 02:18:44;;;;;;;;;;;;;;;22.07;54.80;99600.41;4449192;32;32596;-66
2022/05/21 02:21:14;;;;;;;;;;;;;;;22.23;54.89;99593.91;4450934;32;34155;-66
2022/05/21 02:23:43;;;;;;;;;;;;;;;21.81;56.32;99587.34;4450277;32;34147;-67
2022/05/21 02:26:12;;;;;;;;;;;;;;;21.82;56.56;99580.84;4449661;32;34148;-66
2022/05/21 02:28:44;;;;;;;;;;;;;;;21.44;57.14;99571.12;4450261;32;34358;-65
2022/05/21 02:31:21;;;;;;;;;;;;;;;21.64;57.00;99577.72;4451078;32;34256;-65
2022/05/21 02:33:51;;;;;;;;;;;;;;;21.93;55.33;99584.97;4448096;32;34358;-65
2022/05/21 02:39:25;;;;;;;;;;;;;;;22.07;55.00;99572.34;4450584;32;35396;-65
2022/05/21 02:39:26;;;;;;;;;;;;;;;22.10;54.68;99578.25;4450884;32;34381;-67
2022/05/21 02:41:54;;;;;;;;;;;;;;;21.82;55.67;99586.28;4448878;32;34148;-66
2022/05/21 02:44:23;;;;;;;;;;;;;;;21.74;55.64;99588.31;4451004;32;35122;-67
2022/05/21 02:46:51;;;;;;;;;;;;;;;21.92;55.18;99590.59;4449165;32;34383;-66
2022/05/21 02:49:19;;;;;;;;;;;;;;;21.47;56.35;99603.44;4449630;32;35166;-66
2022/05/21 02:51:48;;;;;;;;;;;;;;;21.28;57.73;99596.66;4449822;32;33988;-67
2022/05/21 02:54:18;;;;;;;;;;;;;;;21.35;57.50;99594.91;4449385;32;33889;-66
2022/05/21 02:56:48;;;;;;;;;;;;;;;21.58;57.29;99601.09;4448101;32;35211;-68
2022/05/21 02:59:17;;;;;;;;;;;;;;;21.24;58.73;99614.41;4448744;32;32367;-68
2022/05/21 03:01:45;;;;;;;;;;;;;;;21.24;58.85;99615.22;4450607;32;34238;-65
2022/05/21 03:04:15;;;;;;;;;;;;;;;21.17;59.41;99609.69;4449523;32;34463;-64
2022/05/21 03:06:44;;;;;;;;;;;;;;;20.78;61.29;99609.06;4449540;32;33273;-64
2022/05/21 03:12:02;;;;;;;;;;;;;;;20.76;62.25;99589.37;4439009;32;34155;-66
2022/05/21 03:14:31;;;;;;;;;;;;;;;20.69;62.06;99579.22;4450532;32;33175;-64
2022/05/21 03:17:00;;;;;;;;;;;;;;;20.70;62.50;99564.59;4451017;32;33214;-64
2022/05/21 03:19:30;;;;;;;;;;;;;;;20.60;63.04;99561.28;4449736;32;33278;-63
2022/05/21 03:21:59;;;;;;;;;;;;;;;20.50;63.64;99563.38;4448525;32;34365;-64
2022/05/21 03:24:28;;;;;;;;;;;;;;;21.01;62.08;99581.81;4447530;32;34419;-63
2022/05/21 03:26:57;;;;;;;;;;;;;;;21.23;60.30;99580.06;4448651;32;33715;-65
2022/05/21 03:29:26;;;;;;;;;;;;;;;21.16;60.68;99588.97;4450699;32;33710;-64
2022/05/21 03:31:56;;;;;;;;;;;;;;;21.31;60.26;99583.50;4448606;32;32826;-66
2022/05/21 03:34:26;;;;;;;;;;;;;;;20.96;60.98;99573.34;4446594;32;34226;-68
2022/05/21 03:36:55;;;;;;;;;;;;;;;21.32;59.65;99571.59;4444370;32;34474;-68
2022/05/21 03:39:24;;;;;;;;;;;;;;;21.60;58.77;99571.81;4449157;32;33620;-68
2022/05/21 03:41:54;;;;;;;;;;;;;;;21.82;58.12;99569.94;4448938;32;32841;-68
2022/05/21 03:44:25;;;;;;;;;;;;;;;21.81;58.00;99564.72;4449083;32;34343;-69
2022/05/21 03:46:54;;;;;;;;;;;;;;;22.01;57.39;99543.13;4448212;32;34177;-65
2022/05/21 03:49:24;;;;;;;;;;;;;;;22.48;55.75;99519.91;4449826;32;33482;-69
2022/05/21 03:51:53;;;;;;;;;;;;;;;22.58;55.52;99514.13;4446426;32;34187;-66
2022/05/21 03:54:23;;;;;;;;;;;;;;;22.39;55.72;99505.56;4449563;32;34062;-66
2022/05/21 03:56:54;;;;;;;;;;;;;;;22.98;53.86;99477.88;4447420;32;34570;-65
2022/05/21 03:59:24;;;;;;;;;;;;;;;22.85;54.02;99464.12;4447940;32;32345;-67
2022/05/21 04:01:55;;;;;;;;;;;;;;;23.22;53.13;99460.16;4449446;32;34518;-69
2022/05/21 04:04:37;;;;;;;;;;;;;;;23.30;53.24;99450.09;4449351;32;35985;-69
2022/05/21 04:07:06;;;;;;;;;;;;;;;23.30;52.55;99453.69;4448348;32;34267;-66
2022/05/21 04:09:35;;;;;;;;;;;;;;;23.12;52.03;99456.12;4452021;32;32303;-65
2022/05/21 04:12:04;;;;;;;;;;;;;;;23.06;52.62;99462.41;4448306;32;32873;-66
2022/05/21 04:14:34;;;;;;;;;;;;;;;22.61;53.39;99462.75;4451794;32;33358;-66
2022/05/21 04:17:04;;;;;;;;;;;;;;;22.29;54.13;99461.44;4452692;32;33223;-66
2022/05/21 04:19:34;;;;;;;;;;;;;;;22.90;52.16;99458.09;4445467;32;32996;-67
2022/05/21 04:22:03;;;;;;;;;;;;;;;22.84;52.18;99442.53;4437665;32;34119;-66
2022/05/21 04:24:32;;;;;;;;;;;;;;;23.03;51.57;99433.62;4451124;32;34365;-66
2022/05/21 04:27:01;;;;;;;;;;;;;;;22.91;51.75;99432.47;4449893;32;34397;-65
2022/05/21 04:29:30;;;;;;;;;;;;;;;23.25;50.98;99446.09;4445602;32;32400;-65
2022/05/21 04:31:59;;;;;;;;;;;;;;;22.91;51.50;99446.13;4452240;32;34350;-66
2022/05/21 04:34:28;;;;;;;;;;;;;;;22.92;52.79;99467.75;4446296;32;34928;-69
2022/05/21 04:36:57;;;;;;;;;;;;;;;22.61;52.88;99467.34;4444996;32;34277;-68
2022/05/21 04:39:29;;;;;;;;;;;;;;;23.11;51.18;99477.09;4436435;32;33384;-68
2022/05/21 04:42:02;;;;;;;;;;;;;;;23.64;50.41;99514.75;4448134;32;33993;-68
2022/05/21 04:44:43;;;;;;;;;;;;;;;23.70;50.40;99513.94;4449425;32;33249;-68
2022/05/21 04:47:21;;;;;;;;;;;;;;;23.73;50.58;99526.38;4453086;32;34543;-71
2022/05/21 04:50:04;;;;;;;;;;;;;;;23.91;50.54;99552.03;4444485;32;33419;-68
2022/05/21 04:52:49;;;;;;;;;;;;;;;24.07;50.26;99534.41;4436827;32;34052;-68
2022/05/21 04:55:27;;;;;;;;;;;;;;;24.07;50.73;99541.78;4446267;32;32649;-69
2022/05/21 04:58:11;;;;;;;;;;;;;;;23.81;51.15;99554.34;4441296;32;33047;-69
2022/05/21 05:00:49;;;;;;;;;;;;;;;23.37;52.65;99543.81;4451981;32;32393;-67
2022/05/21 05:03:32;;;;;;;;;;;;;;;23.27;53.45;99538.72;4444804;32;33472;-69
2022/05/21 05:06:08;;;;;;;;;;;;;;;22.74;54.74;99541.94;4449790;32;33106;-68
2022/05/21 05:08:46;;;;;;;;;;;;;;;23.08;53.93;99551.25;4442628;32;34320;-66
2022/05/21 05:11:16;;;;;;;;;;;;;;;23.32;54.02;99569.00;4450999;32;33090;-66
2022/05/21 05:13:44;;;;;;;;;;;;;;;23.53;53.23;99561.75;4444580;32;32853;-67
2022/05/21 05:16:12;;;;;;;;;;;;;;;23.44;53.66;99552.91;4436938;32;34339;-67
2022/05/21 05:18:45;;;;;;;;;;;;;;;23.48;53.55;99568.66;4447535;32;34404;-69
2022/05/21 05:21:17;;;;;;;;;;;;;;;23.33;54.58;99578.03;4443837;32;34822;-66
2022/05/21 05:23:46;;;;;;;;;;;;;;;22.44;57.30;99573.13;4441067;32;34108;-67
2022/05/21 05:26:16;;;;;;;;;;;;;;;22.61;56.91;99573.72;4444029;32;34306;-66
2022/05/21 05:28:45;;;;;;;;;;;;;;;22.62;56.80;99584.44;4442359;32;35784;-65
2022/05/21 05:31:15;;;;;;;;;;;;;;;22.21;58.38;99593.25;4443763;32;33568;-67
2022/05/21 05:33:44;;;;;;;;;;;;;;;22.11;58.93;99606.31;4445323;32;33972;-66
2022/05/21 05:36:14;;;;;;;;;;;;;;;22.60;57.56;99611.06;4445115;32;35224;-65
2022/05/21 05:38:44;;;;;;;;;;;;;;;22.29;58.13;99605.94;4440010;32;33609;-65
2022/05/21 05:41:13;;;;;;;;;;;;;;;21.60;60.50;99609.94;4435314;32;34488;-69
2022/05/21 05:43:47;;;;;;;;;;;;;;;21.84;59.92;99603.31;4444392;32;33810;-65
2022/05/21 05:46:16;;;;;;;;;;;;;;;21.51;60.37;99611.06;4444685;32;35494;-65
2022/05/21 05:48:44;;;;;;;;;;;;;;;21.50;61.07;99608.50;4436151;32;33190;-66
2022/05/21 05:51:13;;;;;;;;;;;;;;;21.71;60.26;99592.25;4439010;32;33784;-65
2022/05/21 05:53:42;;;;;;;;;;;;;;;21.37;61.95;99588.22;4441853;32;34217;-66
2022/05/21 05:56:11;;;;;;;;;;;;;;;21.44;61.83;99571.97;4448929;32;33122;-68
2022/05/21 06:01:27;;;;;;;;;;;;;;;21.96;59.81;99591.91;4442198;32;34624;-67
2022/05/21 06:03:56;;;;;;;;;;;;;;;21.49;61.11;99590.50;4442493;32;33921;-66
2022/05/21 06:06:25;;;;;;;;;;;;;;;21.92;59.07;99590.59;4450115;32;33106;-67
2022/05/21 06:08:53;;;;;;;;;;;;;;;21.52;59.39;99590.97;4444067;32;35865;-67
2022/05/21 06:11:22;;;;;;;;;;;;;;;21.83;58.18;99579.00;4448477;32;33387;-67
2022/05/21 06:13:50;;;;;;;;;;;;;;;21.95;57.61;99593.78;4443284;32;33245;-67
2022/05/21 06:16:19;;;;;;;;;;;;;;;22.00;57.08;99609.56;4444732;32;32931;-69
2022/05/21 06:18:50;;;;;;;;;;;;;;;21.52;59.04;99615.47;4444922;32;33537;-65
2022/05/21 06:21:19;;;;;;;;;;;;;;;21.62;60.06;99626.91;4449298;32;32327;-69
2022/05/21 06:23:49;;;;;;;;;;;;;;;21.26;62.96;99643.13;4446196;32;34425;-68
2022/05/21 06:26:18;;;;;;;;;;;;;;;21.59;62.19;99638.19;4450415;32;33427;-67
2022/05/21 06:28:48;;;;;;;;;;;;;;;21.17;63.54;99645.06;4447786;32;32403;-66
2022/05/21 06:31:18;;;;;;;;;;;;;;;21.52;62.97;99629.06;4444683;32;33073;-66
2022/05/21 06:33:47;;;;;;;;;;;;;;;21.29;64.42;99631.88;4441069;32;33222;-68
2022/05/21 06:36:15;;;;;;;;;;;;;;;21.23;64.17;99613.56;4449310;32;34365;-68
2022/05/21 06:38:45;;;;;;;;;;;;;;;21.08;65.27;99616.25;4448302;32;35480;-67
2022/05/21 06:41:14;;;;;;;;;;;;;;;21.20;65.21;99604.91;4447808;32;33957;-67
2022/05/21 06:43:48;;;;;;;;;;;;;;;21.34;64.03;99598.63;4445821;32;33959;-66
2022/05/21 06:46:17;;;;;;;;;;;;;;;21.03;65.32;99599.66;4435667;32;34856;-67
2022/05/21 06:48:46;;;;;;;;;;;;;;;21.45;63.95;99598.19;4438533;32;34545;-66
2022/05/21 06:51:16;;;;;;;;;;;;;;;21.65;63.25;99587.56;4444613;32;32912;-65
2022/05/21 06:53:48;;;;;;;;;;;;;;;21.39;64.01;99580.72;4440889;32;34256;-66
2022/05/21 06:56:17;;;;;;;;;;;;;;;21.65;63.05;99570.38;4442395;32;33964;-66
2022/05/21 06:58:46;;;;;;;;;;;;;;;21.27;64.49;99559.59;4441111;32;34614;-66
2022/05/21 07:01:15;;;;;;;;;;;;;;;21.42;64.12;99559.63;4444161;32;34046;-67
2022/05/21 07:03:43;;;;;;;;;;;;;;;21.57;63.83;99555.84;4443344;32;34111;-67
2022/05/21 07:08:58;;;;;;;;;;;;;;;21.71;64.51;99551.37;4443409;32;33231;-68
2022/05/21 07:11:27;;;;;;;;;;;;;;;21.54;64.78;99553.50;4438987;32;33456;-65
2022/05/21 07:13:55;;;;;;;;;;;;;;;21.93;63.83;99549.56;4446394;32;35256;-65
2022/05/21 07:16:24;;;;;;;;;;;;;;;21.73;64.59;99556.63;4446665;32;35487;-67
2022/05/21 07:18:52;;;;;;;;;;;;;;;21.80;64.35;99557.59;4447291;32;34135;-66
2022/05/21 07:21:21;;;;;;;;;;;;;;;21.84;64.70;99551.53;4445619;32;33754;-68
2022/05/21 07:23:50;;;;;;;;;;;;;;;22.16;63.36;99557.56;4436986;32;32669;-66
2022/05/21 07:26:18;;;;;;;;;;;;;;;22.02;63.80;99558.44;4448016;32;35831;-66
2022/05/21 07:28:46;;;;;;;;;;;;;;;21.94;63.40;99570.31;4442390;32;34804;-66
2022/05/21 07:31:17;;;;;;;;;;;;;;;22.08;64.60;99558.50;4436965;32;33635;-65
2022/05/21 07:33:47;;;;;;;;;;;;;;;22.04;65.20;99559.09;4445559;32;32965;-64
2022/05/21 07:36:15;;;;;;;;;;;;;;;22.01;64.44;99563.03;4436474;32;34153;-66
2022/05/21 07:38:43;;;;;;;;;;;;;;;21.72;66.86;99569.41;4446142;32;33065;-66
2022/05/21 07:41:13;;;;;;;;;;;;;;;22.00;65.12;99564.09;4438857;32;33895;-66
2022/05/21 07:43:40;;;;;;;;;;;;;;;21.82;65.80;99566.37;4437243;32;33101;-66
2022/05/21 07:46:08;;;;;;;;;;;;;;;22.08;63.58;99569.41;4445577;32;33072;-68
2022/05/21 07:48:37;;;;;;;;;;;;;;;22.07;64.84;99581.34;4438555;32;34525;-66
2022/05/21 07:51:08;;;;;;;;;;;;;;;22.28;64.53;99580.56;4441375;32;32415;-66
2022/05/21 07:53:38;;;;;;;;;;;;;;;22.25;63.23;99582.84;4436714;32;33218;-68
2022/05/21 07:56:10;;;;;;;;;;;;;;;22.60;63.18;99602.91;4440747;32;33106;-64
2022/05/21 07:58:40;;;;;;;;;;;;;;;22.34;62.79;99608.91;4451233;32;33009;-69
2022/05/21 08:01:08;;;;;;;;;;;;;;;22.73;60.96;99611.19;4446095;32;33590;-66
2022/05/21 08:03:43;;;;;;;;;;;;;;;23.11;60.35;99623.69;4442218;32;31761;-67
2022/05/21 08:06:11;;;;;;;;;;;;;;;22.82;60.35;99614.59;4441345;32;34189;-65
2022/05/21 08:08:40;;;;;;;;;;;;;;;22.52;61.22;99622.09;4444661;32;34212;-66
2022/05/21 08:11:09;;;;;;;;;;;;;;;23.12;60.28;99618.03;4443885;32;32478;-68
2022/05/21 08:13:37;;;;;;;;;;;;;;;23.11;57.29;99620.94;4450309;32;33138;-66
2022/05/21 08:16:05;;;;;;;;;;;;;;;23.14;57.59;99623.28;4451015;32;35845;-66
2022/05/21 08:18:34;;;;;;;;;;;;;;;23.28;57.52;99619.63;4450376;32;33233;-67
2022/05/21 08:21:02;;;;;;;;;;;;;;;23.38;56.47;99611.91;4450597;32;33291;-70
2022/05/21 08:29:10;;;;;;;;;;;;;;;23.15;57.11;99614.06;4450283;32;34265;-66
2022/05/21 08:31:42;;;;;;;;;;;;;;;23.44;57.52;99611.09;4451736;32;33222;-68
2022/05/21 08:34:22;;;;;;;;;;;;;;;23.01;57.71;99604.91;4449572;32;33012;-67
2022/05/21 08:36:53;;;;;;;;;;;;;;;23.17;58.64;99601.88;4451938;32;34151;-65
2022/05/21 08:39:26;;;;;;;;;;;;;;;23.75;56.11;99600.75;4450711;32;34162;-65
2022/05/21 08:41:58;;;;;;;;;;;;;;;23.36;57.91;99605.78;4450100;32;32394;-66
2022/05/21 08:44:28;;;;;;;;;;;;;;;23.86;56.96;99595.56;4451252;32;33282;-68
2022/05/21 08:47:04;;;;;;;;;;;;;;;23.73;56.72;99600.16;4450012;32;34193;-67
2022/05/21 08:49:38;;;;;;;;;;;;;;;23.41;56.99;99606.03;4448515;32;34573;-68
2022/05/21 08:52:14;;;;;;;;;;;;;;;23.33;57.04;99603.47;4449285;32;33189;-66
2022/05/21 08:54:47;;;;;;;;;;;;;;;23.39;57.20;99613.56;4445541;32;34247;-66
2022/05/21 08:57:23;;;;;;;;;;;;;;;23.19;57.71;99608.00;4450254;32;35412;-67
2022/05/21 08:59:59;;;;;;;;;;;;;;;23.65;56.80;99615.59;4449112;32;34495;-66
2022/05/21 09:02:33;;;;;;;;;;;;;;;23.49;57.39;99610.47;4453022;32;33715;-66
2022/05/21 09:05:06;;;;;;;;;;;;;;;23.27;58.50;99609.72;4451684;32;33006;-65
2022/05/21 09:07:47;;;;;;;;;;;;;;;23.98;56.56;99609.50;4452887;32;34078;-66
2022/05/21 09:10:22;;;;;;;;;;;;;;;24.48;55.61;99603.75;4452831;32;33508;-68
2022/05/21 09:12:52;;;;;;;;;;;;;;;24.21;56.28;99609.12;4452425;32;32283;-65
2022/05/21 09:18:16;;;;;;;;;;;;;;;24.57;51.84;99613.44;4450083;32;34368;-67
2022/05/21 09:20:49;;;;;;;;;;;;;;;24.39;50.99;99608.53;4451353;32;33428;-66
2022/05/21 09:23:25;;;;;;;;;;;;;;;24.17;51.15;99616.91;4444817;32;33846;-68
2022/05/21 09:26:05;;;;;;;;;;;;;;;24.48;50.81;99623.72;4449268;32;33033;-67
2022/05/21 09:28:43;;;;;;;;;;;;;;;24.60;50.69;99613.84;4451314;32;34376;-67
2022/05/21 09:31:23;;;;;;;;;;;;;;;24.67;48.76;99619.34;4448763;32;35426;-67
2022/05/21 09:33:57;;;;;;;;;;;;;;;24.75;48.69;99610.94;4442767;32;32358;-68
2022/05/21 09:36:32;;;;;;;;;;;;;;;25.05;48.77;99607.75;4429206;32;31845;-68
2022/05/21 09:39:04;;;;;;;;;;;;;;;25.35;48.55;99612.78;4448971;32;34457;-67
2022/05/21 09:41:36;;;;;;;;;;;;;;;25.35;48.89;99621.00;4441130;32;32044;-66
2022/05/21 09:47:09;;;;;;;;;;;;;;;25.10;48.13;99616.16;4443117;32;34333;-67
2022/05/21 09:49:50;;;;;;;;;;;;;;;25.93;46.21;99615.59;4450882;32;33476;-66
2022/05/21 09:52:25;;;;;;;;;;;;;;;25.86;45.54;99620.25;4442851;32;34227;-67
2022/05/21 09:54:54;;;;;;;;;;;;;;;26.31;44.04;99621.09;4438997;32;32263;-67
2022/05/21 09:57:27;;;;;;;;;;;;;;;26.34;42.58;99606.94;4438311;32;34332;-68
2022/05/21 10:00:04;;;;;;;;;;;;;;;26.35;42.78;99610.50;4451146;32;34431;-69
2022/05/21 10:02:46;;;;;;;;;;;;;;;26.36;42.03;99602.06;4446077;32;33300;-67
2022/05/21 10:05:21;;;;;;;;;;;;;;;26.20;41.15;99619.06;4452061;32;33631;-70
2022/05/21 10:11:00;;;;;;;;;;;;;;;26.87;40.72;99608.47;4439267;32;36667;-68
2022/05/21 10:13:32;;;;;;;;;;;;;;;27.01;39.29;99603.72;4446340;32;35567;-67
2022/05/21 10:16:27;;;;;;;;;;;;;;;27.09;38.52;99597.91;4445883;32;33498;-69
2022/05/21 10:19:10;;;;;;;;;;;;;;;27.08;39.31;99608.06;4427026;32;33960;-67
2022/05/21 10:21:59;;;;;;;;;;;;;;;27.41;37.21;99604.19;4433944;32;32871;-66
2022/05/21 10:24:44;;;;;;;;;;;;;;;27.23;34.48;99599.53;4449633;32;33430;-65
2022/05/21 10:27:21;;;;;;;;;;;;;;;27.79;36.23;99603.97;4448379;32;33375;-67
2022/05/21 10:30:09;;;;;;;;;;;;;;;27.56;37.46;99604.66;4452389;32;34834;-66
2022/05/21 10:32:49;;;;;;;;;;;;;;;27.93;36.48;99610.19;4451658;32;34048;-67
2022/05/21 10:35:34;;;;;;;;;;;;;;;27.89;35.05;99605.34;4446143;32;34756;-66
2022/05/21 10:38:14;;;;;;;;;;;;;;;27.50;34.39;99593.72;4437804;32;31777;-68
2022/05/21 10:40:59;;;;;;;;;;;;;;;27.49;35.10;99601.12;4437251;32;33786;-67
2022/05/21 10:43:27;;;;;;;;;;;;;;;27.52;35.77;99592.44;4438257;32;36240;-67
2022/05/21 10:46:05;;;;;;;;;;;;;;;27.77;36.02;99594.28;4438596;32;34359;-67
2022/05/21 10:48:36;;;;;;;;;;;;;;;27.53;37.14;99598.78;4442296;32;33599;-67
2022/05/21 10:51:04;;;;;;;;;;;;;;;27.88;35.20;99604.50;4448504;32;33012;-68
2022/05/21 10:53:37;;;;;;;;;;;;;;;27.95;33.50;99594.25;4444205;32;32975;-69
2022/05/21 10:56:09;;;;;;;;;;;;;;;27.90;30.93;99596.00;4443222;32;34503;-69
2022/05/21 10:58:53;;;;;;;;;;;;;;;28.38;30.77;99597.87;4445227;32;33649;-67
2022/05/21 11:01:29;;;;;;;;;;;;;;;28.32;30.71;99600.53;4442890;32;34845;-67
2022/05/21 11:04:03;;;;;;;;;;;;;;;28.50;29.87;99593.28;4444873;32;35595;-65
2022/05/21 11:06:35;;;;;;;;;;;;;;;28.08;31.74;99598.75;4443157;32;35301;-68
2022/05/21 11:09:15;;;;;;;;;;;;;;;27.92;31.81;99591.97;4441495;32;33371;-67
2022/05/21 11:11:46;;;;;;;;;;;;;;;27.94;30.88;99598.09;4443545;32;32373;-68
2022/05/21 11:14:15;;;;;;;;;;;;;;;28.12;29.95;99601.88;4442358;32;34208;-68
2022/05/21 11:17:16;;;;;;;;;;;;;;;27.41;30.59;99598.69;4447148;32;35176;-66
2022/05/21 11:19:46;;;;;;;;;;;;;;;27.63;32.40;99594.41;4418503;32;33478;-67
2022/05/21 11:22:24;;;;;;;;;;;;;;;27.50;33.48;99590.97;4445942;32;33471;-68
2022/05/21 11:25:04;;;;;;;;;;;;;;;27.58;34.33;99583.28;4445870;32;34457;-66
2022/05/21 11:27:35;;;;;;;;;;;;;;;28.08;32.92;99585.81;4446525;32;34728;-67
2022/05/21 11:30:06;;;;;;;;;;;;;;;27.43;34.74;99580.06;4442553;32;32620;-67
2022/05/21 11:38:16;;;;;;;;;;;;;;;27.80;33.90;99574.56;4448074;32;35572;-66
2022/05/21 11:41:24;;;;;;;;;;;;;;;27.85;34.55;99571.97;4445421;32;32346;-68
2022/05/21 11:46:53;;;;;;;;;;;;;;;27.59;31.96;99576.69;4447274;32;34036;-68
2022/05/21 11:49:28;;;;;;;;;;;;;;;27.58;33.07;99577.78;4446970;32;31773;-67
2022/05/21 11:51:59;;;;;;;;;;;;;;;27.62;33.38;99572.66;4444239;32;31754;-66
2022/05/21 11:54:47;;;;;;;;;;;;;;;27.35;33.32;99570.22;4447822;32;35296;-66
2022/05/21 11:57:33;;;;;;;;;;;;;;;27.20;33.95;99575.25;4442212;32;33280;-65
2022/05/21 12:00:07;;;;;;;;;;;;;;;27.86;33.58;99573.63;4443061;32;34536;-66
2022/05/21 12:02:39;;;;;;;;;;;;;;;27.83;34.05;99563.97;4440787;32;32785;-66
2022/05/21 12:05:08;;;;;;;;;;;;;;;28.13;34.04;99582.37;4448583;32;32950;-67
2022/05/21 12:07:43;;;;;;;;;;;;;;;28.12;33.31;99575.19;4448517;32;33337;-66
2022/05/21 12:10:28;;;;;;;;;;;;;;;27.81;33.36;99568.84;4447261;32;34131;-66
2022/05/21 12:13:00;;;;;;;;;;;;;;;27.76;34.76;99565.91;4447696;32;33780;-66
2022/05/21 12:15:35;;;;;;;;;;;;;;;27.66;34.41;99567.53;4442736;32;33571;-66
2022/05/21 12:18:06;;;;;;;;;;;;;;;27.87;34.82;99564.34;4435563;32;35417;-65
2022/05/21 12:20:48;;;;;;;;;;;;;;;27.79;34.62;99565.47;4446182;32;33600;-66
2022/05/21 12:23:25;;;;;;;;;;;;;;;27.38;35.05;99561.53;4448060;32;33519;-65
2022/05/21 12:25:54;;;;;;;;;;;;;;;28.10;34.33;99564.44;4446830;32;32766;-66
2022/05/21 12:28:22;;;;;;;;;;;;;;;27.83;35.72;99579.59;4443067;32;33480;-66
2022/05/21 12:31:00;;;;;;;;;;;;;;;27.82;33.97;99565.03;4445454;32;35603;-66
2022/05/21 12:33:32;;;;;;;;;;;;;;;27.82;34.23;99553.19;4451572;32;33764;-65
2022/05/21 12:36:00;;;;;;;;;;;;;;;27.81;34.27;99563.34;4439154;32;34054;-66
2022/05/21 12:38:30;;;;;;;;;;;;;;;27.76;32.93;99543.91;4445027;32;34329;-68
2022/05/21 12:41:03;;;;;;;;;;;;;;;27.16;34.37;99552.06;4446782;32;33420;-66
2022/05/21 12:43:41;;;;;;;;;;;;;;;27.20;33.17;99546.94;4448437;32;34220;-67
2022/05/21 12:46:28;;;;;;;;;;;;;;;27.23;30.97;99554.72;4446356;32;34849;-66
2022/05/21 12:48:56;;;;;;;;;;;;;;;27.33;28.96;99560.53;4449446;32;34687;-65
2022/05/21 12:51:40;;;;;;;;;;;;;;;27.44;30.17;99540.50;4440119;32;35383;-64
2022/05/21 12:54:22;;;;;;;;;;;;;;;27.31;28.64;99565.41;4434405;32;32449;-65
2022/05/21 12:56:50;;;;;;;;;;;;;;;27.76;28.56;99562.31;4444601;32;35190;-64
2022/05/21 12:59:18;;;;;;;;;;;;;;;27.68;28.73;99548.91;4449663;32;33146;-68
2022/05/21 13:01:51;;;;;;;;;;;;;;;27.63;28.67;99544.91;4442864;32;35018;-68
2022/05/21 13:04:23;;;;;;;;;;;;;;;27.63;29.17;99541.34;4444514;32;34552;-66
2022/05/21 13:06:52;;;;;;;;;;;;;;;27.72;28.04;99556.44;4451389;32;33328;-68
2022/05/21 13:09:20;;;;;;;;;;;;;;;27.41;27.30;99554.72;4439899;32;32559;-68
2022/05/21 13:11:48;;;;;;;;;;;;;;;27.74;27.54;99542.50;4449577;32;33861;-66
2022/05/21 13:14:21;;;;;;;;;;;;;;;27.32;28.48;99559.69;4450118;32;33154;-67
2022/05/21 13:16:50;;;;;;;;;;;;;;;27.30;29.31;99539.84;4449690;32;32809;-65
2022/05/21 13:19:38;;;;;;;;;;;;;;;27.61;28.41;99538.00;4444419;32;33139;-64
2022/05/21 13:22:09;;;;;;;;;;;;;;;27.65;28.60;99544.72;4443015;32;33010;-66
2022/05/21 13:24:45;;;;;;;;;;;;;;;27.97;28.69;99545.38;4437557;32;33912;-66
2022/05/21 13:27:18;;;;;;;;;;;;;;;27.90;28.64;99541.00;4450221;32;33796;-70
2022/05/21 13:29:45;;;;;;;;;;;;;;;28.02;28.51;99545.50;4446462;32;34051;-67
2022/05/21 13:32:14;;;;;;;;;;;;;;;27.56;28.77;99546.91;4440989;32;34481;-65
2022/05/21 13:34:42;;;;;;;;;;;;;;;27.67;29.36;99534.28;4444957;32;33238;-65
2022/05/21 13:37:10;;;;;;;;;;;;;;;27.32;30.80;99537.72;4439496;32;34127;-65
2022/05/21 13:39:38;;;;;;;;;;;;;;;27.93;30.83;99532.28;4440550;32;34055;-64
2022/05/21 13:42:07;;;;;;;;;;;;;;;27.85;30.29;99538.97;4445973;32;34107;-66
2022/05/21 13:44:36;;;;;;;;;;;;;;;28.34;29.74;99537.81;4443158;32;33716;-66
2022/05/21 13:47:24;;;;;;;;;;;;;;;28.22;30.22;99531.47;4446962;32;32864;-67
2022/05/21 13:49:52;;;;;;;;;;;;;;;28.25;29.42;99521.87;4439588;32;34102;-66